Time;durP1;ratioP1;P1;durP2;ratioP2;P2;SDS_P1;SDS_P2;PMS_P1;PMS_P2;Temp;Humidity;BMP_temperature;BMP_pressure;BME280_temperature;BME280_humidity;BME280_pressure;Samples;Min_cycle;Max_cycle;Signal;HPM_P1;HPM_P2
2022/01/04 00:00:20;;;;;;;10.93;3.70;;;;;;;;;;5070219;28;20116;-62
2022/01/04 00:02:46;;;;;;;6.47;3.00;;;;;;;;;;5073734;28;20040;-62
2022/01/04 00:05:12;;;;;;;10.23;3.38;;;;;;;;;;5070224;28;20032;-62
2022/01/04 00:07:37;;;;;;;6.55;2.47;;;;;;;;;;5054335;28;20035;-62
2022/01/04 00:10:05;;;;;;;5.72;2.78;;;;;;;;;;5072741;28;20108;-62
2022/01/04 00:15:15;;;;;;;7.03;2.30;;;;;;;;;;5072121;28;20052;-62
2022/01/04 00:17:40;;;;;;;5.35;2.22;;;;;;;;;;5071097;28;20390;-62
2022/01/04 00:20:07;;;;;;;5.55;2.05;;;;;;;;;;5071696;28;20032;-62
2022/01/04 00:22:32;;;;;;;5.35;2.33;;;;;;;;;;5068121;28;20504;-62
2022/01/04 00:24:58;;;;;;;6.38;2.50;;;;;;;;;;5072923;28;20036;-63
2022/01/04 00:27:23;;;;;;;4.78;2.35;;;;;;;;;;5072244;28;20428;-63
2022/01/04 00:29:49;;;;;;;6.93;2.08;;;;;;;;;;5071030;28;20100;-65
2022/01/04 00:32:15;;;;;;;5.63;2.95;;;;;;;;;;5053634;28;20045;-63
2022/01/04 00:34:41;;;;;;;6.22;2.15;;;;;;;;;;5072306;28;20044;-63
2022/01/04 00:37:07;;;;;;;4.70;2.05;;;;;;;;;;5069440;28;20083;-63
2022/01/04 00:39:32;;;;;;;3.25;1.70;;;;;;;;;;5072754;28;20045;-62
2022/01/04 00:41:58;;;;;;;4.32;1.95;;;;;;;;;;5072194;28;20058;-63
2022/01/04 00:44:23;;;;;;;7.20;1.88;;;;;;;;;;5071937;28;20107;-63
2022/01/04 00:46:49;;;;;;;4.07;1.90;;;;;;;;;;5073806;28;20020;-64
2022/01/04 00:49:17;;;;;;;6.70;2.08;;;;;;;;;;5071693;28;20035;-64
2022/01/04 00:51:45;;;;;;;4.05;1.92;;;;;;;;;;5073955;28;20056;-63
2022/01/04 00:54:13;;;;;;;4.60;1.70;;;;;;;;;;5063794;28;20040;-63
2022/01/04 00:56:39;;;;;;;3.47;1.60;;;;;;;;;;5072145;28;20142;-63
2022/01/04 00:59:04;;;;;;;4.40;1.60;;;;;;;;;;5071250;28;20107;-63
2022/01/04 01:01:30;;;;;;;5.38;1.63;;;;;;;;;;5066207;28;20032;-62
2022/01/04 01:03:56;;;;;;;7.45;1.85;;;;;;;;;;5060424;28;20043;-63
2022/01/04 01:06:22;;;;;;;2.88;1.60;;;;;;;;;;5069082;28;20116;-63
2022/01/04 01:08:47;;;;;;;2.78;1.60;;;;;;;;;;5071793;28;20044;-63
2022/01/04 01:11:14;;;;;;;3.38;1.55;;;;;;;;;;5069307;28;20626;-63
2022/01/04 01:13:40;;;;;;;2.65;1.40;;;;;;;;;;5071584;28;20028;-62
2022/01/04 01:16:06;;;;;;;4.05;1.58;;;;;;;;;;5068809;28;20040;-63
2022/01/04 01:18:32;;;;;;;3.97;1.40;;;;;;;;;;5069935;28;20432;-63
2022/01/04 01:20:57;;;;;;;5.05;1.50;;;;;;;;;;5055523;28;20032;-63
2022/01/04 01:23:22;;;;;;;2.30;1.30;;;;;;;;;;5072278;28;20052;-64
2022/01/04 01:25:48;;;;;;;2.00;1.15;;;;;;;;;;5071531;28;20033;-66
2022/01/04 01:28:14;;;;;;;2.40;1.33;;;;;;;;;;5070986;28;20036;-63
2022/01/04 01:30:42;;;;;;;1.75;1.17;;;;;;;;;;5070752;28;20028;-63
2022/01/04 01:33:08;;;;;;;1.05;0.82;;;;;;;;;;5067522;28;20029;-63
2022/01/04 01:35:37;;;;;;;2.55;0.88;;;;;;;;;;5069542;28;20029;-62
2022/01/04 01:38:03;;;;;;;1.88;1.15;;;;;;;;;;5071874;28;20032;-64
2022/01/04 01:40:29;;;;;;;5.55;1.50;;;;;;;;;;5072360;28;20036;-62
2022/01/04 01:42:55;;;;;;;2.42;1.40;;;;;;;;;;5069615;28;20032;-64
2022/01/04 01:45:23;;;;;;;4.30;1.80;;;;;;;;;;5071204;28;20444;-62
2022/01/04 01:47:49;;;;;;;2.97;1.70;;;;;;;;;;5069318;28;20048;-63
2022/01/04 01:50:15;;;;;;;5.68;1.73;;;;;;;;;;5071040;28;20111;-63
2022/01/04 01:52:44;;;;;;;4.70;1.80;;;;;;;;;;5067853;28;20029;-61
2022/01/04 01:55:10;;;;;;;2.97;1.83;;;;;;;;;;5070642;28;20093;-63
2022/01/04 01:57:36;;;;;;;5.00;1.92;;;;;;;;;;5071265;28;20939;-63
2022/01/04 02:00:05;;;;;;;3.03;1.63;;;;;;;;;;5069578;28;20067;-64
2022/01/04 02:02:31;;;;;;;2.05;1.35;;;;;;;;;;5055523;28;20482;-63
2022/01/04 02:04:56;;;;;;;4.15;1.70;;;;;;;;;;5069238;28;20082;-64
2022/01/04 02:07:23;;;;;;;3.92;1.50;;;;;;;;;;5069814;28;20056;-63
2022/01/04 02:10:01;;;;;;;3.03;1.60;;;;;;;;;;5065246;28;20091;-63
2022/01/04 02:12:27;;;;;;;3.35;1.67;;;;;;;;;;5052537;28;20041;-63
2022/01/04 02:14:52;;;;;;;3.58;1.88;;;;;;;;;;5069746;28;20056;-63
2022/01/04 02:17:18;;;;;;;3.67;1.85;;;;;;;;;;5070728;28;20041;-63
2022/01/04 02:19:43;;;;;;;3.42;1.90;;;;;;;;;;5069396;28;20029;-63
2022/01/04 02:22:08;;;;;;;3.58;1.88;;;;;;;;;;5068549;28;20107;-63
2022/01/04 02:24:34;;;;;;;3.30;1.90;;;;;;;;;;5069691;28;20032;-63
2022/01/04 02:27:00;;;;;;;4.72;2.10;;;;;;;;;;5069265;28;20025;-64
2022/01/04 02:29:27;;;;;;;3.90;1.90;;;;;;;;;;5068728;28;20032;-63
2022/01/04 02:31:53;;;;;;;4.25;2.15;;;;;;;;;;5068930;28;20128;-64
2022/01/04 02:34:18;;;;;;;4.38;2.20;;;;;;;;;;5068564;28;20032;-64
2022/01/04 02:36:44;;;;;;;6.03;2.30;;;;;;;;;;5068213;28;20108;-63
2022/01/04 02:39:09;;;;;;;5.25;2.60;;;;;;;;;;5067836;28;20051;-64
2022/01/04 02:41:35;;;;;;;5.53;2.67;;;;;;;;;;5070156;28;20040;-64
2022/01/04 02:44:00;;;;;;;7.50;3.08;;;;;;;;;;5069886;28;20457;-64
2022/01/04 02:46:26;;;;;;;6.60;3.03;;;;;;;;;;5071117;28;20550;-64
2022/01/04 02:48:51;;;;;;;7.45;3.17;;;;;;;;;;5070399;28;20036;-64
2022/01/04 02:51:18;;;;;;;7.45;3.47;;;;;;;;;;5067168;28;20028;-64
2022/01/04 02:53:44;;;;;;;5.82;3.30;;;;;;;;;;5049238;28;20033;-63
2022/01/04 02:56:11;;;;;;;8.23;3.22;;;;;;;;;;5062209;28;20131;-64
2022/01/04 02:58:36;;;;;;;8.27;4.00;;;;;;;;;;5071188;28;20032;-64
2022/01/04 03:01:02;;;;;;;8.15;3.70;;;;;;;;;;5069755;28;20567;-64
2022/01/04 03:03:31;;;;;;;9.07;4.05;;;;;;;;;;5069492;28;20036;-63
2022/01/04 03:05:56;;;;;;;8.00;3.83;;;;;;;;;;5068780;28;20063;-63
2022/01/04 03:08:23;;;;;;;7.35;3.80;;;;;;;;;;5067613;28;20390;-63
2022/01/04 03:10:48;;;;;;;9.85;3.80;;;;;;;;;;5070870;28;20470;-63
2022/01/04 03:13:16;;;;;;;9.65;4.75;;;;;;;;;;5067355;28;20035;-64
2022/01/04 03:15:42;;;;;;;8.45;4.30;;;;;;;;;;5070926;28;20521;-63
2022/01/04 03:18:08;;;;;;;9.00;4.50;;;;;;;;;;5069632;28;20036;-63
2022/01/04 03:20:33;;;;;;;9.38;5.10;;;;;;;;;;5069059;28;20036;-63
2022/01/04 03:22:58;;;;;;;10.23;4.30;;;;;;;;;;5070391;28;20535;-63
2022/01/04 03:25:24;;;;;;;10.23;5.05;;;;;;;;;;5069339;28;20444;-63
2022/01/04 03:27:49;;;;;;;11.25;5.30;;;;;;;;;;5069756;28;20021;-63
2022/01/04 03:30:15;;;;;;;11.27;4.85;;;;;;;;;;5069667;28;20147;-63
2022/01/04 03:32:40;;;;;;;10.18;5.22;;;;;;;;;;5061839;28;20363;-63
2022/01/04 03:35:06;;;;;;;10.85;5.32;;;;;;;;;;5060214;28;20033;-63
2022/01/04 03:37:32;;;;;;;11.73;5.60;;;;;;;;;;5066914;28;20442;-63
2022/01/04 03:39:57;;;;;;;11.15;5.40;;;;;;;;;;5069420;28;20056;-62
2022/01/04 03:42:22;;;;;;;10.57;5.13;;;;;;;;;;5069622;28;20025;-63
2022/01/04 03:44:48;;;;;;;9.13;4.97;;;;;;;;;;5067813;28;20405;-63
2022/01/04 03:47:13;;;;;;;9.23;5.07;;;;;;;;;;5062668;28;20029;-63
2022/01/04 03:49:38;;;;;;;9.07;5.30;;;;;;;;;;5061233;28;20028;-63
2022/01/04 03:52:04;;;;;;;9.75;5.07;;;;;;;;;;5063424;28;20112;-63
2022/01/04 03:54:30;;;;;;;9.30;5.13;;;;;;;;;;5070746;28;20040;-63
2022/01/04 03:56:55;;;;;;;14.68;5.43;;;;;;;;;;5065135;28;20063;-63
2022/01/04 03:59:20;;;;;;;9.98;5.28;;;;;;;;;;5069646;28;20530;-63
2022/01/04 04:01:47;;;;;;;10.52;5.90;;;;;;;;;;5061801;28;20032;-63
2022/01/04 04:04:13;;;;;;;9.82;5.90;;;;;;;;;;5067964;28;20029;-63
2022/01/04 04:06:39;;;;;;;11.30;5.82;;;;;;;;;;5066283;28;20326;-63
2022/01/04 04:09:04;;;;;;;10.18;5.97;;;;;;;;;;5070294;28;20043;-64
2022/01/04 04:11:30;;;;;;;12.30;6.75;;;;;;;;;;5071457;28;20033;-64
2022/01/04 04:13:55;;;;;;;12.77;5.82;;;;;;;;;;5072310;28;20048;-63
2022/01/04 04:16:21;;;;;;;12.65;7.20;;;;;;;;;;5070447;28;20704;-64
2022/01/04 04:18:46;;;;;;;12.63;6.72;;;;;;;;;;5073783;28;20438;-64
2022/01/04 04:21:12;;;;;;;14.90;7.68;;;;;;;;;;5071981;28;20467;-64
2022/01/04 04:23:37;;;;;;;14.38;7.50;;;;;;;;;;5072475;28;20405;-64
2022/01/04 04:26:04;;;;;;;15.10;8.18;;;;;;;;;;5073017;28;20040;-65
2022/01/04 04:28:29;;;;;;;14.55;7.60;;;;;;;;;;5071708;28;20029;-64
2022/01/04 04:30:56;;;;;;;13.50;7.20;;;;;;;;;;5072448;28;20086;-64
2022/01/04 04:33:22;;;;;;;12.38;6.80;;;;;;;;;;5072421;28;20033;-65
2022/01/04 04:35:47;;;;;;;14.32;6.97;;;;;;;;;;5069328;28;20050;-65
2022/01/04 04:38:31;;;;;;;19.90;7.07;;;;;;;;;;5072314;28;20437;-65
2022/01/04 04:40:56;;;;;;;12.82;6.43;;;;;;;;;;5071369;28;20032;-65
2022/01/04 04:43:22;;;;;;;10.30;5.65;;;;;;;;;;5072188;28;20856;-66
2022/01/04 04:45:47;;;;;;;9.48;5.32;;;;;;;;;;5071956;28;20028;-66
2022/01/04 04:48:13;;;;;;;12.45;5.80;;;;;;;;;;5070612;28;20428;-66
2022/01/04 04:50:38;;;;;;;11.10;5.32;;;;;;;;;;5072010;28;20021;-66
2022/01/04 04:53:04;;;;;;;13.88;5.85;;;;;;;;;;5072185;28;20050;-66
2022/01/04 04:55:30;;;;;;;9.68;5.43;;;;;;;;;;5072271;28;20461;-66
2022/01/04 04:57:56;;;;;;;10.10;5.47;;;;;;;;;;5073746;28;20033;-66
2022/01/04 05:00:21;;;;;;;8.85;5.13;;;;;;;;;;5070128;28;20077;-66
2022/01/04 05:02:47;;;;;;;13.05;6.30;;;;;;;;;;5072627;28;20029;-66
2022/01/04 05:05:12;;;;;;;12.00;5.30;;;;;;;;;;5068139;28;20075;-67
2022/01/04 05:07:38;;;;;;;9.85;5.28;;;;;;;;;;5072952;28;20032;-67
2022/01/04 05:10:05;;;;;;;11.27;5.28;;;;;;;;;;5070178;28;20028;-67
2022/01/04 05:12:31;;;;;;;10.27;6.13;;;;;;;;;;5072213;28;20123;-67
2022/01/04 05:14:56;;;;;;;13.25;5.57;;;;;;;;;;5071231;28;20120;-67
2022/01/04 05:17:22;;;;;;;12.30;5.95;;;;;;;;;;5071663;28;20036;-68
2022/01/04 05:19:47;;;;;;;12.02;5.90;;;;;;;;;;5072620;28;20438;-68
2022/01/04 05:22:13;;;;;;;11.63;6.45;;;;;;;;;;5064425;28;20064;-68
2022/01/04 05:24:38;;;;;;;13.40;7.00;;;;;;;;;;5058253;28;20179;-68
2022/01/04 05:27:04;;;;;;;15.35;7.75;;;;;;;;;;5071308;28;20085;-69
2022/01/04 05:29:30;;;;;;;10.82;5.72;;;;;;;;;;5070639;28;20107;-69
2022/01/04 05:31:55;;;;;;;14.30;7.60;;;;;;;;;;5072614;28;20119;-69
2022/01/04 05:34:21;;;;;;;13.40;7.68;;;;;;;;;;5068847;28;20036;-70
2022/01/04 05:36:46;;;;;;;13.13;6.28;;;;;;;;;;5067826;28;20028;-70
2022/01/04 05:39:12;;;;;;;17.75;7.25;;;;;;;;;;5071963;28;20472;-70
2022/01/04 05:41:37;;;;;;;11.70;6.57;;;;;;;;;;5072600;28;20028;-70
2022/01/04 05:44:02;;;;;;;14.32;7.78;;;;;;;;;;5072745;28;20032;-71
2022/01/04 05:46:28;;;;;;;16.63;8.35;;;;;;;;;;5080004;28;20036;-71
2022/01/04 05:48:53;;;;;;;16.50;7.90;;;;;;;;;;5072835;28;20036;-71
2022/01/04 05:51:19;;;;;;;12.45;6.40;;;;;;;;;;5071822;28;20108;-70
2022/01/04 05:53:44;;;;;;;17.75;7.72;;;;;;;;;;5072018;28;20104;-70
2022/01/04 05:56:10;;;;;;;17.40;8.60;;;;;;;;;;5072252;28;20039;-72
2022/01/04 05:58:35;;;;;;;15.57;8.43;;;;;;;;;;5072516;28;20032;-69
2022/01/04 06:01:01;;;;;;;13.38;6.13;;;;;;;;;;5069642;28;20037;-70
2022/01/04 06:03:27;;;;;;;15.07;7.47;;;;;;;;;;5064112;28;20025;-70
2022/01/04 06:05:53;;;;;;;12.68;6.05;;;;;;;;;;5056959;28;20519;-69
2022/01/04 06:08:20;;;;;;;16.63;8.07;;;;;;;;;;5057982;28;20033;-70
2022/01/04 06:10:50;;;;;;;15.00;6.88;;;;;;;;;;5064798;28;20459;-68
2022/01/04 06:16:07;;;;;;;;;;;;;;;;;;5058232;28;20062;-69
2022/01/04 06:18:32;;;;;;;14.25;7.13;;;;;;;;;;5071114;28;20001;-69
2022/01/04 06:20:58;;;;;;;17.00;7.70;;;;;;;;;;5071393;28;20029;-69
2022/01/04 06:23:23;;;;;;;15.82;7.40;;;;;;;;;;5070607;28;20036;-69
2022/01/04 06:25:54;;;;;;;15.30;7.53;;;;;;;;;;5071588;28;20086;-68
2022/01/04 06:28:20;;;;;;;18.83;8.10;;;;;;;;;;5071016;28;20032;-70
2022/01/04 06:30:45;;;;;;;16.33;7.43;;;;;;;;;;5071424;28;20043;-69
2022/01/04 06:33:11;;;;;;;17.20;7.65;;;;;;;;;;5067248;28;20037;-71
2022/01/04 06:35:37;;;;;;;14.32;7.82;;;;;;;;;;5070974;28;20032;-71
2022/01/04 06:38:04;;;;;;;18.00;7.55;;;;;;;;;;5072034;28;20024;-71
2022/01/04 06:40:29;;;;;;;17.98;8.20;;;;;;;;;;5070748;28;20113;-71
2022/01/04 06:42:55;;;;;;;18.02;7.55;;;;;;;;;;5070782;28;20032;-71
2022/01/04 06:45:21;;;;;;;18.40;8.45;;;;;;;;;;5069309;28;20061;-71
2022/01/04 06:47:46;;;;;;;19.40;8.80;;;;;;;;;;5070798;28;20039;-70
2022/01/04 06:50:15;;;;;;;18.25;8.57;;;;;;;;;;5071022;28;20032;-74
2022/01/04 06:52:40;;;;;;;19.52;9.40;;;;;;;;;;5071323;28;20476;-69
2022/01/04 06:55:06;;;;;;;17.83;8.70;;;;;;;;;;5071391;28;20029;-69
2022/01/04 06:57:31;;;;;;;17.85;8.70;;;;;;;;;;5065871;28;20089;-70
2022/01/04 06:59:57;;;;;;;17.13;7.93;;;;;;;;;;5070547;28;20115;-70
2022/01/04 07:02:23;;;;;;;21.33;9.63;;;;;;;;;;5070195;28;20020;-70
2022/01/04 07:04:48;;;;;;;17.80;7.80;;;;;;;;;;5069694;28;20039;-68
2022/01/04 07:07:14;;;;;;;19.60;9.57;;;;;;;;;;5070683;28;20028;-73
2022/01/04 07:09:39;;;;;;;19.92;9.80;;;;;;;;;;5071113;28;20036;-66
2022/01/04 07:12:05;;;;;;;18.70;9.05;;;;;;;;;;5069360;28;20028;-67
2022/01/04 07:14:30;;;;;;;21.10;10.25;;;;;;;;;;5069268;28;20052;-67
2022/01/04 07:16:55;;;;;;;22.73;9.90;;;;;;;;;;5071410;28;20035;-69
2022/01/04 07:19:22;;;;;;;21.38;10.00;;;;;;;;;;5070373;28;20028;-69
2022/01/04 07:21:47;;;;;;;20.50;10.27;;;;;;;;;;5070859;28;20032;-68
2022/01/04 07:24:13;;;;;;;24.25;10.38;;;;;;;;;;5070977;28;20063;-73
2022/01/04 07:26:38;;;;;;;23.70;10.48;;;;;;;;;;5065746;28;20074;-68
2022/01/04 07:29:04;;;;;;;24.30;10.63;;;;;;;;;;5065191;28;20055;-65
2022/01/04 07:31:29;;;;;;;19.23;10.20;;;;;;;;;;5063028;28;20416;-66
2022/01/04 07:33:55;;;;;;;23.65;10.05;;;;;;;;;;5054125;28;20035;-67
2022/01/04 07:36:21;;;;;;;21.92;10.55;;;;;;;;;;5067967;28;20068;-66
2022/01/04 07:38:47;;;;;;;23.73;10.18;;;;;;;;;;5069891;28;20449;-64
2022/01/04 07:41:12;;;;;;;20.52;9.80;;;;;;;;;;5070851;28;20115;-69
2022/01/04 07:43:37;;;;;;;25.95;9.95;;;;;;;;;;5070932;28;20033;-65
2022/01/04 07:46:03;;;;;;;23.80;9.63;;;;;;;;;;5071846;28;20028;-66
2022/01/04 07:48:29;;;;;;;18.65;7.75;;;;;;;;;;5074232;28;20146;-65
2022/01/04 07:50:55;;;;;;;28.67;9.15;;;;;;;;;;5074570;28;20048;-66
2022/01/04 07:53:22;;;;;;;21.38;8.35;;;;;;;;;;5073864;28;20205;-65
2022/01/04 07:55:48;;;;;;;29.40;10.60;;;;;;;;;;5072626;28;20031;-65
2022/01/04 07:58:14;;;;;;;30.80;9.52;;;;;;;;;;5074422;28;20025;-69
2022/01/04 08:00:39;;;;;;;25.30;9.98;;;;;;;;;;5070546;28;20033;-66
2022/01/04 08:03:06;;;;;;;26.15;9.68;;;;;;;;;;5073689;28;20037;-65
2022/01/04 08:05:32;;;;;;;22.55;9.88;;;;;;;;;;5073319;28;20056;-65
2022/01/04 08:07:58;;;;;;;24.45;9.85;;;;;;;;;;5074931;28;20477;-65
2022/01/04 08:10:23;;;;;;;19.27;8.98;;;;;;;;;;5073601;28;20029;-65
2022/01/04 08:12:49;;;;;;;15.02;7.60;;;;;;;;;;5057794;28;20048;-63
2022/01/04 08:15:14;;;;;;;21.40;8.88;;;;;;;;;;5073108;28;20090;-67
2022/01/04 08:17:40;;;;;;;18.40;8.90;;;;;;;;;;5074315;28;20090;-64
2022/01/04 08:20:07;;;;;;;15.82;8.05;;;;;;;;;;5074079;28;20385;-64
2022/01/04 08:22:34;;;;;;;18.25;8.32;;;;;;;;;;5073663;28;20031;-64
2022/01/04 08:25:04;;;;;;;18.02;8.23;;;;;;;;;;5074103;28;20037;-63
2022/01/04 08:27:30;;;;;;;16.63;8.15;;;;;;;;;;5073446;28;20060;-64
2022/01/04 08:29:56;;;;;;;14.70;7.95;;;;;;;;;;5072894;28;20130;-63
2022/01/04 08:32:22;;;;;;;22.55;7.80;;;;;;;;;;5063024;28;20098;-63
2022/01/04 08:34:48;;;;;;;22.38;8.00;;;;;;;;;;5064077;28;20036;-63
2022/01/04 08:37:13;;;;;;;16.85;7.30;;;;;;;;;;5052785;28;20378;-64
2022/01/04 08:39:39;;;;;;;16.45;7.13;;;;;;;;;;5071544;28;20501;-63
2022/01/04 08:42:04;;;;;;;17.15;7.30;;;;;;;;;;5057299;28;20462;-63
2022/01/04 08:44:30;;;;;;;19.45;7.35;;;;;;;;;;5071054;28;20028;-62
2022/01/04 08:46:56;;;;;;;15.18;6.55;;;;;;;;;;5073414;28;20032;-63
2022/01/04 08:49:22;;;;;;;15.35;6.85;;;;;;;;;;5072382;28;20048;-62
2022/01/04 08:51:48;;;;;;;14.70;7.47;;;;;;;;;;5073323;28;20082;-62
2022/01/04 08:54:14;;;;;;;21.70;8.65;;;;;;;;;;5073831;28;20055;-62
2022/01/04 08:56:40;;;;;;;24.55;10.63;;;;;;;;;;5072462;28;20032;-63
2022/01/04 08:59:08;;;;;;;22.58;9.63;;;;;;;;;;5066496;28;20126;-63
2022/01/04 09:01:34;;;;;;;25.30;9.88;;;;;;;;;;5067511;28;20078;-61
2022/01/04 09:04:01;;;;;;;17.65;7.60;;;;;;;;;;5072110;28;20036;-63
2022/01/04 09:06:27;;;;;;;26.13;10.13;;;;;;;;;;5072755;28;20036;-65
2022/01/04 09:08:55;;;;;;;24.73;10.02;;;;;;;;;;5072829;28;20063;-63
2022/01/04 09:11:21;;;;;;;14.68;6.57;;;;;;;;;;5071004;28;20046;-62
2022/01/04 09:13:54;;;;;;;22.27;9.20;;;;;;;;;;5074767;28;20124;-61
2022/01/04 09:19:03;;;;;;;19.13;8.60;;;;;;;;;;5072781;28;20039;-62
2022/01/04 09:21:29;;;;;;;18.45;8.07;;;;;;;;;;5070430;28;20405;-62
2022/01/04 09:23:59;;;;;;;14.85;6.90;;;;;;;;;;5072706;28;20036;-63
2022/01/04 09:26:25;;;;;;;22.98;9.77;;;;;;;;;;5070873;28;20032;-63
2022/01/04 09:28:52;;;;;;;21.88;8.68;;;;;;;;;;5072805;28;20097;-63
2022/01/04 09:31:20;;;;;;;25.50;10.65;;;;;;;;;;5071821;28;20183;-66
2022/01/04 09:33:46;;;;;;;24.92;10.63;;;;;;;;;;5063662;28;20104;-63
2022/01/04 09:36:11;;;;;;;21.08;8.50;;;;;;;;;;5068528;28;20483;-61
2022/01/04 09:38:37;;;;;;;18.75;8.43;;;;;;;;;;5071826;28;20251;-63
2022/01/04 09:41:02;;;;;;;23.33;8.75;;;;;;;;;;5072761;28;20071;-62
2022/01/04 09:43:28;;;;;;;22.25;8.95;;;;;;;;;;5054505;28;20032;-62
2022/01/04 09:45:53;;;;;;;14.77;6.50;;;;;;;;;;5070610;28;20055;-66
2022/01/04 09:48:19;;;;;;;17.83;8.40;;;;;;;;;;5069923;28;20130;-65
2022/01/04 09:50:47;;;;;;;19.00;8.25;;;;;;;;;;5072571;28;20111;-62
2022/01/04 09:53:19;;;;;;;20.50;8.50;;;;;;;;;;5072582;28;20028;-64
2022/01/04 09:55:47;;;;;;;20.50;8.52;;;;;;;;;;5070207;28;20032;-63
2022/01/04 09:58:12;;;;;;;17.05;7.50;;;;;;;;;;5070537;28;20025;-64
2022/01/04 10:00:38;;;;;;;22.02;8.02;;;;;;;;;;5071056;28;20028;-63
2022/01/04 10:03:13;;;;;;;20.92;8.88;;;;;;;;;;5072275;28;20159;-62
2022/01/04 10:05:39;;;;;;;21.60;8.35;;;;;;;;;;5069794;28;20112;-63
2022/01/04 10:08:06;;;;;;;20.17;9.25;;;;;;;;;;5071484;28;20132;-62
2022/01/04 10:10:34;;;;;;;17.45;8.65;;;;;;;;;;5070993;28;20382;-63
2022/01/04 10:13:03;;;;;;;23.50;9.63;;;;;;;;;;5070620;28;20040;-63
2022/01/04 10:15:31;;;;;;;21.08;7.63;;;;;;;;;;5069661;28;20124;-64
2022/01/04 10:17:57;;;;;;;19.77;9.48;;;;;;;;;;5072274;28;20032;-64
2022/01/04 10:20:22;;;;;;;16.05;7.70;;;;;;;;;;5070826;28;20038;-62
2022/01/04 10:22:50;;;;;;;20.30;9.07;;;;;;;;;;5068108;28;20453;-61
2022/01/04 10:25:19;;;;;;;19.15;8.48;;;;;;;;;;5072389;28;20111;-61
2022/01/04 10:27:50;;;;;;;20.20;9.02;;;;;;;;;;5069484;28;20092;-62
2022/01/04 10:30:22;;;;;;;18.20;8.65;;;;;;;;;;5071204;28;20039;-62
2022/01/04 10:33:00;;;;;;;19.88;9.40;;;;;;;;;;5071238;28;20036;-63
2022/01/04 10:35:38;;;;;;;17.50;8.25;;;;;;;;;;5070891;28;20056;-63
2022/01/04 10:38:20;;;;;;;18.23;8.50;;;;;;;;;;5057569;28;20164;-63
2022/01/04 10:40:50;;;;;;;19.30;8.57;;;;;;;;;;5063655;28;20028;-64
2022/01/04 10:43:20;;;;;;;19.27;9.50;;;;;;;;;;5071710;28;20032;-64
2022/01/04 10:45:47;;;;;;;20.80;10.48;;;;;;;;;;5071135;28;20032;-64
2022/01/04 10:48:25;;;;;;;22.35;10.40;;;;;;;;;;5071455;28;20488;-62
2022/01/04 10:50:53;;;;;;;15.30;8.40;;;;;;;;;;5070277;28;20032;-64
2022/01/04 10:53:29;;;;;;;20.63;9.90;;;;;;;;;;5071540;28;20093;-68
2022/01/04 10:56:07;;;;;;;22.55;9.65;;;;;;;;;;5070804;28;20550;-62
2022/01/04 10:58:47;;;;;;;22.85;11.57;;;;;;;;;;5070668;28;20036;-65
2022/01/04 11:01:20;;;;;;;23.25;12.52;;;;;;;;;;5068487;28;20037;-63
2022/01/04 11:03:47;;;;;;;25.90;12.55;;;;;;;;;;5068752;28;20028;-61
2022/01/04 11:06:19;;;;;;;24.10;13.13;;;;;;;;;;5070773;28;20033;-64
2022/01/04 11:08:45;;;;;;;26.63;12.65;;;;;;;;;;5070195;28;20034;-66
2022/01/04 11:11:11;;;;;;;30.77;14.80;;;;;;;;;;5071524;28;20416;-62
2022/01/04 11:13:37;;;;;;;29.67;15.02;;;;;;;;;;5069233;28;20025;-65
2022/01/04 11:16:04;;;;;;;30.83;15.57;;;;;;;;;;5070096;28;20078;-63
2022/01/04 11:18:30;;;;;;;32.83;15.50;;;;;;;;;;5071088;28;20040;-64
2022/01/04 11:20:57;;;;;;;26.88;14.20;;;;;;;;;;5060940;28;20502;-64
2022/01/04 11:23:25;;;;;;;31.25;15.27;;;;;;;;;;5060910;28;20040;-65
2022/01/04 11:25:51;;;;;;;30.88;15.15;;;;;;;;;;5073995;28;20170;-63
2022/01/04 11:28:18;;;;;;;34.67;15.35;;;;;;;;;;5074417;28;20059;-66
2022/01/04 11:30:46;;;;;;;31.60;14.98;;;;;;;;;;5074473;28;20037;-64
2022/01/04 11:33:27;;;;;;;37.08;16.58;;;;;;;;;;5069880;28;20036;-64
2022/01/04 11:35:53;;;;;;;28.95;15.05;;;;;;;;;;5071505;28;20037;-62
2022/01/04 11:38:36;;;;;;;31.63;15.07;;;;;;;;;;5072626;28;20046;-64
2022/01/04 11:41:05;;;;;;;28.25;13.18;;;;;;;;;;5074942;28;20466;-62
2022/01/04 11:43:39;;;;;;;34.72;16.90;;;;;;;;;;5081151;28;20135;-63
2022/01/04 11:46:05;;;;;;;30.42;15.35;;;;;;;;;;5075056;28;20036;-63
2022/01/04 11:48:42;;;;;;;30.15;15.05;;;;;;;;;;5073861;28;20367;-63
2022/01/04 11:51:28;;;;;;;35.10;16.30;;;;;;;;;;5073832;28;20047;-65
2022/01/04 11:54:20;;;;;;;32.60;16.00;;;;;;;;;;5074551;28;20085;-63
2022/01/04 11:56:54;;;;;;;37.45;17.30;;;;;;;;;;5074362;28;20044;-62
2022/01/04 11:59:26;;;;;;;31.02;15.48;;;;;;;;;;5072107;28;20039;-65
2022/01/04 12:01:54;;;;;;;34.95;15.95;;;;;;;;;;5074842;28;20115;-64
2022/01/04 12:04:51;;;;;;;32.05;16.75;;;;;;;;;;5073816;28;20036;-68
2022/01/04 12:07:47;;;;;;;27.17;14.68;;;;;;;;;;5072605;28;20029;-64
2022/01/04 12:10:22;;;;;;;32.35;16.67;;;;;;;;;;5074231;28;20028;-64
2022/01/04 12:13:10;;;;;;;30.00;14.77;;;;;;;;;;5074535;28;20033;-63
2022/01/04 12:15:36;;;;;;;33.38;15.68;;;;;;;;;;5072791;28;20048;-65
2022/01/04 12:18:02;;;;;;;33.22;16.55;;;;;;;;;;5074312;28;20032;-64
2022/01/04 12:20:43;;;;;;;36.70;16.23;;;;;;;;;;5070444;28;20117;-63
2022/01/04 12:23:24;;;;;;;28.45;14.68;;;;;;;;;;5074578;28;20040;-63
2022/01/04 12:26:05;;;;;;;25.38;13.13;;;;;;;;;;5073982;28;20036;-64
2022/01/04 12:28:35;;;;;;;32.92;15.82;;;;;;;;;;5070248;28;20056;-64
2022/01/04 12:31:13;;;;;;;28.13;14.38;;;;;;;;;;5073457;28;20040;-63
2022/01/04 12:33:43;;;;;;;29.65;15.25;;;;;;;;;;5072873;28;20103;-63
2022/01/04 12:36:26;;;;;;;36.13;12.88;;;;;;;;;;5072542;28;20044;-64
2022/01/04 12:38:54;;;;;;;32.10;14.93;;;;;;;;;;5072717;28;20040;-64
2022/01/04 12:41:20;;;;;;;32.50;15.15;;;;;;;;;;5073257;28;20029;-66
2022/01/04 12:43:47;;;;;;;24.80;12.75;;;;;;;;;;5073503;28;20032;-63
2022/01/04 12:46:13;;;;;;;33.30;14.73;;;;;;;;;;5073346;28;20123;-62
2022/01/04 12:48:51;;;;;;;30.55;14.45;;;;;;;;;;5071257;28;20613;-63
2022/01/04 12:51:26;;;;;;;26.70;12.27;;;;;;;;;;5059423;28;20424;-65
2022/01/04 12:53:53;;;;;;;32.00;15.35;;;;;;;;;;5053790;28;20029;-63
2022/01/04 12:56:19;;;;;;;29.92;15.05;;;;;;;;;;5064498;28;20086;-65
2022/01/04 12:58:44;;;;;;;32.38;15.27;;;;;;;;;;5073333;28;20458;-63
2022/01/04 13:01:13;;;;;;;34.58;16.15;;;;;;;;;;5073361;28;20402;-63
2022/01/04 13:03:39;;;;;;;27.30;15.13;;;;;;;;;;5072957;28;20097;-64
2022/01/04 13:06:05;;;;;;;34.42;15.65;;;;;;;;;;5071736;28;20092;-64
2022/01/04 13:08:31;;;;;;;31.50;13.20;;;;;;;;;;5072517;28;20032;-63
2022/01/04 13:11:07;;;;;;;27.33;12.43;;;;;;;;;;5073389;28;20062;-63
2022/01/04 13:13:33;;;;;;;32.83;13.80;;;;;;;;;;5072761;28;20037;-63
2022/01/04 13:16:21;;;;;;;27.42;12.85;;;;;;;;;;5070978;28;20055;-62
2022/01/04 13:18:48;;;;;;;29.60;13.70;;;;;;;;;;5068399;28;20500;-62
2022/01/04 13:21:14;;;;;;;28.35;14.13;;;;;;;;;;5053340;28;20450;-63
2022/01/04 13:23:42;;;;;;;29.92;14.25;;;;;;;;;;5069595;28;20745;-63
2022/01/04 13:26:14;;;;;;;28.13;11.82;;;;;;;;;;5073496;28;20032;-64
2022/01/04 13:28:40;;;;;;;27.65;13.25;;;;;;;;;;5070727;28;20517;-63
2022/01/04 13:31:05;;;;;;;28.85;14.05;;;;;;;;;;5070345;28;20056;-66
2022/01/04 13:33:32;;;;;;;23.45;11.05;;;;;;;;;;5050330;28;20052;-64
2022/01/04 13:35:58;;;;;;;28.45;12.38;;;;;;;;;;5072662;28;20028;-65
2022/01/04 13:38:26;;;;;;;33.25;14.88;;;;;;;;;;5060892;28;20438;-64
2022/01/04 13:40:55;;;;;;;20.70;11.20;;;;;;;;;;5052763;28;20178;-64
2022/01/04 13:43:32;;;;;;;31.20;15.43;;;;;;;;;;5070114;28;20029;-68
2022/01/04 13:46:04;;;;;;;33.28;15.25;;;;;;;;;;5072257;28;20036;-64
2022/01/04 13:48:35;;;;;;;35.58;16.27;;;;;;;;;;5068221;28;20062;-69
2022/01/04 13:51:15;;;;;;;29.83;13.88;;;;;;;;;;5053358;28;20068;-70
2022/01/04 13:53:47;;;;;;;30.27;14.25;;;;;;;;;;5050272;28;20033;-66
2022/01/04 13:56:17;;;;;;;34.58;16.02;;;;;;;;;;5053189;28;20029;-66
2022/01/04 13:58:49;;;;;;;28.67;12.88;;;;;;;;;;5071417;28;20155;-65
2022/01/04 14:01:19;;;;;;;46.67;17.45;;;;;;;;;;5071202;28;20040;-65
2022/01/04 14:03:57;;;;;;;38.28;15.93;;;;;;;;;;5063051;28;20036;-64
2022/01/04 14:06:31;;;;;;;26.85;11.48;;;;;;;;;;5070490;28;20394;-62
2022/01/04 14:08:57;;;;;;;18.30;8.02;;;;;;;;;;5070819;28;20363;-65
2022/01/04 14:11:28;;;;;;;14.30;6.13;;;;;;;;;;5071506;28;20480;-65
2022/01/04 14:13:54;;;;;;;11.77;5.50;;;;;;;;;;5071850;28;20032;-63
2022/01/04 14:16:21;;;;;;;15.13;7.25;;;;;;;;;;5068860;28;20278;-67
2022/01/04 14:19:12;;;;;;;15.95;8.23;;;;;;;;;;5070724;28;20028;-64
2022/01/04 14:21:41;;;;;;;20.88;8.82;;;;;;;;;;5071460;28;20234;-64
2022/01/04 14:24:38;;;;;;;14.10;6.35;;;;;;;;;;5071892;28;20032;-65
2022/01/04 14:27:11;;;;;;;17.23;8.32;;;;;;;;;;5071846;28;20470;-65
2022/01/04 14:29:43;;;;;;;18.63;8.85;;;;;;;;;;5070660;28;20850;-65
2022/01/04 14:32:11;;;;;;;15.75;8.82;;;;;;;;;;5069985;28;20489;-65
2022/01/04 14:34:37;;;;;;;15.20;7.35;;;;;;;;;;5070753;28;20082;-66
2022/01/04 14:37:05;;;;;;;12.57;6.05;;;;;;;;;;5071214;28;20033;-66
2022/01/04 14:39:31;;;;;;;14.98;7.20;;;;;;;;;;5070446;28;20483;-67
2022/01/04 14:42:02;;;;;;;9.05;4.25;;;;;;;;;;5072211;28;20032;-65